Portada
METAR-TAF:

METAR-TAF

Aeroports :

Aeroport d'Amsterdam-Schiphol

Amsterdam, Països Baixos

latitud: 52-18N, longitud: 004-46E, altitud: -4 m

Observació

L'informe es va fer fa 13 minuts, a les 06:25 UTC
Vent 8 kt del Est/Nord-Est, variant entre Nord-Est i Est
Temperatura 11°C
Humitat 71%
Pressió 1026 hPa
Visibilitat 10 km o més
sense núvols per sota de 1500 mi sense presència de cumulonimbus.

METAR: EHAM 180625Z 06008KT 040V100 CAVOK 11/06 Q1026 NOSIG

Hora: 08:38 (06:38 UTC)

Pronòstic

L'informe es va fer fa 2 hores i 1 minuts, a les 04:37 UTC
Pronòstic vàlid del 18 a les 06 UTC al 19 a les 12 UTC
Vent 10 kt del Est/Nord-Est
Visibilitat 10 km o més
sense núvols per sota de 1500 mi sense presència de cumulonimbus.

TAF: EHAM 180437Z 1806/1912 07010KT CAVOK

Observacions i pronòstics meteorològics de més de 4000 aeroports (METAR i TAF).

Les estacions disponibles són els punts grocs i vermells al mapa.

Posi el ratolí al punt desitjat per veure el nom de l'estació.

Feu clic per veure les observacions i els pronòstics meteorològics.

Per canviar el mapa: feu clic els botons verds amb una creu de color negre per apropar; al botó verd amb un guió per allunyar la imatge; o en les fletxes verdes per a mapes adjacents.


METAR-TAF: